Terminal Aerodrome Forecast
Issued by NWS Raleigh/Durham, NC

Home | Current Version | Previous Version | Text Only | Print | Product List | Glossary On
Versions: 1 2 3 4 5 6 7 8 9 10 11 12 13 14
000
FTUS42 KRAH 181124
TAFRDU
TAF
KRDU 181124Z 1812/1912 00000KT P6SM SCT050
     FM181600 VRB04KT P6SM FEW250
     FM190900 VRB02KT 4SM BR SCT009=

USA.gov is the U.S. government's official web portal to all federal, state and local government web resources and services.